sensor_id;sensor_type;location;lat;lon;timestamp;temperature;humidity
28374;DHT22;15616;40.148;-102.718;2022-08-03T00:01:59;25.80;51.20
28374;DHT22;15616;40.148;-102.718;2022-08-03T00:04:26;25.90;51.30
28374;DHT22;15616;40.148;-102.718;2022-08-03T00:06:52;25.90;51.30
28374;DHT22;15616;40.148;-102.718;2022-08-03T00:09:18;25.90;51.30
28374;DHT22;15616;40.148;-102.718;2022-08-03T00:11:43;25.80;51.20
28374;DHT22;15616;40.148;-102.718;2022-08-03T00:14:09;25.80;51.30
28374;DHT22;15616;40.148;-102.718;2022-08-03T00:16:35;25.80;51.20
28374;DHT22;15616;40.148;-102.718;2022-08-03T00:19:02;25.80;51.30
28374;DHT22;15616;40.148;-102.718;2022-08-03T00:21:28;25.80;51.30
28374;DHT22;15616;40.148;-102.718;2022-08-03T00:23:54;25.80;51.40
28374;DHT22;15616;40.148;-102.718;2022-08-03T00:26:20;25.80;51.40
28374;DHT22;15616;40.148;-102.718;2022-08-03T00:28:47;25.80;51.40
28374;DHT22;15616;40.148;-102.718;2022-08-03T00:31:13;25.80;51.50
28374;DHT22;15616;40.148;-102.718;2022-08-03T00:33:39;25.80;51.50
28374;DHT22;15616;40.148;-102.718;2022-08-03T00:36:05;25.80;51.50
28374;DHT22;15616;40.148;-102.718;2022-08-03T00:38:31;25.80;51.40
28374;DHT22;15616;40.148;-102.718;2022-08-03T00:40:57;25.80;51.40
28374;DHT22;15616;40.148;-102.718;2022-08-03T00:43:25;25.80;51.50
28374;DHT22;15616;40.148;-102.718;2022-08-03T00:45:52;25.80;51.50
28374;DHT22;15616;40.148;-102.718;2022-08-03T00:48:19;25.80;51.40
28374;DHT22;15616;40.148;-102.718;2022-08-03T00:50:45;25.80;51.40
28374;DHT22;15616;40.148;-102.718;2022-08-03T00:53:13;25.80;51.40
28374;DHT22;15616;40.148;-102.718;2022-08-03T00:55:42;25.80;51.50
28374;DHT22;15616;40.148;-102.718;2022-08-03T00:58:09;25.80;51.50
28374;DHT22;15616;40.148;-102.718;2022-08-03T01:00:38;25.80;51.50
28374;DHT22;15616;40.148;-102.718;2022-08-03T01:03:06;25.80;51.60
28374;DHT22;15616;40.148;-102.718;2022-08-03T01:06:04;25.80;51.50
28374;DHT22;15616;40.148;-102.718;2022-08-03T01:08:46;25.80;51.50
28374;DHT22;15616;40.148;-102.718;2022-08-03T01:11:49;25.80;51.50
28374;DHT22;15616;40.148;-102.718;2022-08-03T01:14:47;25.80;51.60
28374;DHT22;15616;40.148;-102.718;2022-08-03T01:18:02;25.80;51.70
28374;DHT22;15616;40.148;-102.718;2022-08-03T01:20:31;25.80;51.70
28374;DHT22;15616;40.148;-102.718;2022-08-03T01:25:39;25.80;51.70
28374;DHT22;15616;40.148;-102.718;2022-08-03T01:30:52;25.70;51.80
28374;DHT22;15616;40.148;-102.718;2022-08-03T01:33:23;25.70;51.80
28374;DHT22;15616;40.148;-102.718;2022-08-03T01:35:58;25.70;51.80
28374;DHT22;15616;40.148;-102.718;2022-08-03T01:38:28;25.70;51.80
28374;DHT22;15616;40.148;-102.718;2022-08-03T01:40:57;25.70;51.70
28374;DHT22;15616;40.148;-102.718;2022-08-03T01:43:29;25.70;51.70
28374;DHT22;15616;40.148;-102.718;2022-08-03T01:45:55;25.70;51.70
28374;DHT22;15616;40.148;-102.718;2022-08-03T01:48:23;25.70;51.70
28374;DHT22;15616;40.148;-102.718;2022-08-03T01:50:50;25.70;51.70
28374;DHT22;15616;40.148;-102.718;2022-08-03T01:53:19;25.70;51.70
28374;DHT22;15616;40.148;-102.718;2022-08-03T01:55:48;25.70;51.80
28374;DHT22;15616;40.148;-102.718;2022-08-03T01:58:18;25.70;51.80
28374;DHT22;15616;40.148;-102.718;2022-08-03T02:00:46;25.60;51.70
28374;DHT22;15616;40.148;-102.718;2022-08-03T02:03:14;25.70;51.80
28374;DHT22;15616;40.148;-102.718;2022-08-03T02:05:44;25.60;51.80
28374;DHT22;15616;40.148;-102.718;2022-08-03T02:08:13;25.60;51.80
28374;DHT22;15616;40.148;-102.718;2022-08-03T02:10:41;25.60;51.80
28374;DHT22;15616;40.148;-102.718;2022-08-03T02:13:08;25.60;51.80
28374;DHT22;15616;40.148;-102.718;2022-08-03T02:15:36;25.60;51.80
28374;DHT22;15616;40.148;-102.718;2022-08-03T02:18:05;25.60;52.50
28374;DHT22;15616;40.148;-102.718;2022-08-03T02:20:32;25.60;51.80
28374;DHT22;15616;40.148;-102.718;2022-08-03T02:23:01;25.60;51.80
28374;DHT22;15616;40.148;-102.718;2022-08-03T02:25:27;25.60;51.90
28374;DHT22;15616;40.148;-102.718;2022-08-03T02:27:57;25.60;51.80
28374;DHT22;15616;40.148;-102.718;2022-08-03T02:30:38;25.60;51.70
28374;DHT22;15616;40.148;-102.718;2022-08-03T02:33:11;25.70;51.90
28374;DHT22;15616;40.148;-102.718;2022-08-03T02:35:39;25.60;51.90
28374;DHT22;15616;40.148;-102.718;2022-08-03T02:38:07;25.60;51.90
28374;DHT22;15616;40.148;-102.718;2022-08-03T02:40:35;25.60;51.90
28374;DHT22;15616;40.148;-102.718;2022-08-03T02:43:07;25.60;51.90
28374;DHT22;15616;40.148;-102.718;2022-08-03T02:45:35;25.60;51.90
28374;DHT22;15616;40.148;-102.718;2022-08-03T02:48:07;25.60;51.90
28374;DHT22;15616;40.148;-102.718;2022-08-03T02:50:35;25.60;51.80
28374;DHT22;15616;40.148;-102.718;2022-08-03T02:53:02;25.60;51.90
28374;DHT22;15616;40.148;-102.718;2022-08-03T02:55:29;25.60;51.90
28374;DHT22;15616;40.148;-102.718;2022-08-03T02:57:58;25.60;51.90
28374;DHT22;15616;40.148;-102.718;2022-08-03T03:00:25;25.60;51.90
28374;DHT22;15616;40.148;-102.718;2022-08-03T03:02:51;25.60;51.90
28374;DHT22;15616;40.148;-102.718;2022-08-03T03:05:18;25.60;52.00
28374;DHT22;15616;40.148;-102.718;2022-08-03T03:07:44;25.60;52.00
28374;DHT22;15616;40.148;-102.718;2022-08-03T03:10:11;25.60;51.90
28374;DHT22;15616;40.148;-102.718;2022-08-03T03:12:37;25.60;51.90
28374;DHT22;15616;40.148;-102.718;2022-08-03T03:15:05;25.60;51.90
28374;DHT22;15616;40.148;-102.718;2022-08-03T03:17:33;25.60;52.00
28374;DHT22;15616;40.148;-102.718;2022-08-03T03:19:59;25.60;52.00
28374;DHT22;15616;40.148;-102.718;2022-08-03T03:22:26;25.60;52.00
28374;DHT22;15616;40.148;-102.718;2022-08-03T03:24:53;25.60;51.90
28374;DHT22;15616;40.148;-102.718;2022-08-03T03:27:20;25.60;51.90
28374;DHT22;15616;40.148;-102.718;2022-08-03T03:29:47;25.60;51.90
28374;DHT22;15616;40.148;-102.718;2022-08-03T03:32:14;25.60;51.90
28374;DHT22;15616;40.148;-102.718;2022-08-03T03:34:40;25.60;51.90
28374;DHT22;15616;40.148;-102.718;2022-08-03T03:37:07;25.60;51.90
28374;DHT22;15616;40.148;-102.718;2022-08-03T03:39:33;25.60;51.90
28374;DHT22;15616;40.148;-102.718;2022-08-03T03:42:01;25.50;51.90
28374;DHT22;15616;40.148;-102.718;2022-08-03T03:44:28;25.50;51.90
28374;DHT22;15616;40.148;-102.718;2022-08-03T03:46:58;25.60;51.90
28374;DHT22;15616;40.148;-102.718;2022-08-03T03:49:24;25.60;52.00
28374;DHT22;15616;40.148;-102.718;2022-08-03T03:51:54;25.50;51.90
28374;DHT22;15616;40.148;-102.718;2022-08-03T03:54:20;25.60;51.90
28374;DHT22;15616;40.148;-102.718;2022-08-03T03:56:46;25.50;51.90
28374;DHT22;15616;40.148;-102.718;2022-08-03T03:59:12;25.60;51.90
28374;DHT22;15616;40.148;-102.718;2022-08-03T04:01:38;25.60;51.90
28374;DHT22;15616;40.148;-102.718;2022-08-03T04:04:05;25.50;52.00
28374;DHT22;15616;40.148;-102.718;2022-08-03T04:06:50;25.60;52.00
28374;DHT22;15616;40.148;-102.718;2022-08-03T04:09:35;25.50;52.00
28374;DHT22;15616;40.148;-102.718;2022-08-03T04:12:23;25.50;52.00
28374;DHT22;15616;40.148;-102.718;2022-08-03T04:14:54;25.50;52.00
28374;DHT22;15616;40.148;-102.718;2022-08-03T04:17:23;25.60;52.00
28374;DHT22;15616;40.148;-102.718;2022-08-03T04:19:52;25.50;51.90
28374;DHT22;15616;40.148;-102.718;2022-08-03T04:22:23;25.50;52.00
28374;DHT22;15616;40.148;-102.718;2022-08-03T04:24:54;25.50;52.00
28374;DHT22;15616;40.148;-102.718;2022-08-03T04:27:25;25.60;52.10
28374;DHT22;15616;40.148;-102.718;2022-08-03T04:29:53;25.60;52.10
28374;DHT22;15616;40.148;-102.718;2022-08-03T04:32:21;25.60;52.00
28374;DHT22;15616;40.148;-102.718;2022-08-03T04:34:50;25.50;52.00
28374;DHT22;15616;40.148;-102.718;2022-08-03T04:37:43;25.50;52.00
28374;DHT22;15616;40.148;-102.718;2022-08-03T04:40:16;25.60;52.00
28374;DHT22;15616;40.148;-102.718;2022-08-03T04:42:45;25.50;52.00
28374;DHT22;15616;40.148;-102.718;2022-08-03T04:45:12;25.60;52.00
28374;DHT22;15616;40.148;-102.718;2022-08-03T04:47:40;25.60;52.00
28374;DHT22;15616;40.148;-102.718;2022-08-03T04:50:06;25.60;52.00
28374;DHT22;15616;40.148;-102.718;2022-08-03T04:52:33;25.60;52.10
28374;DHT22;15616;40.148;-102.718;2022-08-03T04:54:59;25.50;52.10
28374;DHT22;15616;40.148;-102.718;2022-08-03T04:57:25;25.60;52.20
28374;DHT22;15616;40.148;-102.718;2022-08-03T04:59:52;25.60;52.20
28374;DHT22;15616;40.148;-102.718;2022-08-03T05:02:21;25.60;52.30
28374;DHT22;15616;40.148;-102.718;2022-08-03T05:04:48;25.50;52.30
28374;DHT22;15616;40.148;-102.718;2022-08-03T05:07:16;25.60;52.40
28374;DHT22;15616;40.148;-102.718;2022-08-03T05:09:42;25.60;52.30
28374;DHT22;15616;40.148;-102.718;2022-08-03T05:12:09;25.60;52.20
28374;DHT22;15616;40.148;-102.718;2022-08-03T05:14:36;25.70;52.40
28374;DHT22;15616;40.148;-102.718;2022-08-03T05:17:07;25.70;52.30
28374;DHT22;15616;40.148;-102.718;2022-08-03T05:19:33;25.70;52.30
28374;DHT22;15616;40.148;-102.718;2022-08-03T05:21:59;25.70;52.20
28374;DHT22;15616;40.148;-102.718;2022-08-03T05:24:25;25.70;52.20
28374;DHT22;15616;40.148;-102.718;2022-08-03T05:26:52;25.70;52.20
28374;DHT22;15616;40.148;-102.718;2022-08-03T05:29:18;25.70;52.10
28374;DHT22;15616;40.148;-102.718;2022-08-03T05:31:44;25.70;52.00
28374;DHT22;15616;40.148;-102.718;2022-08-03T05:34:10;25.80;52.00
28374;DHT22;15616;40.148;-102.718;2022-08-03T05:36:36;25.80;52.00
28374;DHT22;15616;40.148;-102.718;2022-08-03T05:39:02;25.80;52.00
28374;DHT22;15616;40.148;-102.718;2022-08-03T05:41:28;25.80;52.00
28374;DHT22;15616;40.148;-102.718;2022-08-03T05:43:54;25.70;52.00
28374;DHT22;15616;40.148;-102.718;2022-08-03T05:46:21;25.70;51.90
28374;DHT22;15616;40.148;-102.718;2022-08-03T05:48:47;25.70;51.90
28374;DHT22;15616;40.148;-102.718;2022-08-03T05:51:13;25.70;51.90
28374;DHT22;15616;40.148;-102.718;2022-08-03T05:53:41;25.80;51.90
28374;DHT22;15616;40.148;-102.718;2022-08-03T05:56:08;25.70;51.90
28374;DHT22;15616;40.148;-102.718;2022-08-03T05:58:34;25.60;52.00
28374;DHT22;15616;40.148;-102.718;2022-08-03T06:01:00;25.60;52.10
28374;DHT22;15616;40.148;-102.718;2022-08-03T06:03:26;25.60;52.30
28374;DHT22;15616;40.148;-102.718;2022-08-03T06:05:53;25.60;52.50
28374;DHT22;15616;40.148;-102.718;2022-08-03T06:08:22;25.60;52.60
28374;DHT22;15616;40.148;-102.718;2022-08-03T06:10:48;25.60;52.70
28374;DHT22;15616;40.148;-102.718;2022-08-03T06:13:14;25.60;52.70
28374;DHT22;15616;40.148;-102.718;2022-08-03T06:15:41;25.60;52.70
28374;DHT22;15616;40.148;-102.718;2022-08-03T06:18:07;25.60;52.70
28374;DHT22;15616;40.148;-102.718;2022-08-03T06:20:32;25.60;52.80
28374;DHT22;15616;40.148;-102.718;2022-08-03T06:22:58;25.60;52.80
28374;DHT22;15616;40.148;-102.718;2022-08-03T06:25:25;25.50;52.80
28374;DHT22;15616;40.148;-102.718;2022-08-03T06:27:51;25.50;52.80
28374;DHT22;15616;40.148;-102.718;2022-08-03T06:30:17;25.50;52.80
28374;DHT22;15616;40.148;-102.718;2022-08-03T06:32:43;25.60;52.80
28374;DHT22;15616;40.148;-102.718;2022-08-03T06:35:10;25.60;52.80
28374;DHT22;15616;40.148;-102.718;2022-08-03T06:37:43;25.50;52.80
28374;DHT22;15616;40.148;-102.718;2022-08-03T06:40:11;25.60;52.80
28374;DHT22;15616;40.148;-102.718;2022-08-03T06:42:37;25.60;52.80
28374;DHT22;15616;40.148;-102.718;2022-08-03T06:45:04;25.60;52.80
28374;DHT22;15616;40.148;-102.718;2022-08-03T06:47:32;25.60;52.70
28374;DHT22;15616;40.148;-102.718;2022-08-03T06:49:58;25.60;52.80
28374;DHT22;15616;40.148;-102.718;2022-08-03T06:52:24;25.60;52.80
28374;DHT22;15616;40.148;-102.718;2022-08-03T06:54:49;25.60;52.80
28374;DHT22;15616;40.148;-102.718;2022-08-03T06:57:15;25.50;52.80
28374;DHT22;15616;40.148;-102.718;2022-08-03T06:59:43;25.50;52.80
28374;DHT22;15616;40.148;-102.718;2022-08-03T07:02:09;25.50;52.80
28374;DHT22;15616;40.148;-102.718;2022-08-03T07:04:36;25.50;52.80
28374;DHT22;15616;40.148;-102.718;2022-08-03T07:07:02;25.50;52.80
28374;DHT22;15616;40.148;-102.718;2022-08-03T07:09:28;25.50;52.80
28374;DHT22;15616;40.148;-102.718;2022-08-03T07:11:54;25.50;52.80
28374;DHT22;15616;40.148;-102.718;2022-08-03T07:14:21;25.50;52.80
28374;DHT22;15616;40.148;-102.718;2022-08-03T07:16:47;25.50;52.80
28374;DHT22;15616;40.148;-102.718;2022-08-03T07:19:13;25.60;52.90
28374;DHT22;15616;40.148;-102.718;2022-08-03T07:21:39;25.50;52.80
28374;DHT22;15616;40.148;-102.718;2022-08-03T07:24:05;25.60;52.90
28374;DHT22;15616;40.148;-102.718;2022-08-03T07:26:31;25.60;52.90
28374;DHT22;15616;40.148;-102.718;2022-08-03T07:28:57;25.60;52.90
28374;DHT22;15616;40.148;-102.718;2022-08-03T07:31:25;25.60;52.80
28374;DHT22;15616;40.148;-102.718;2022-08-03T07:33:51;25.60;52.80
28374;DHT22;15616;40.148;-102.718;2022-08-03T07:36:17;25.60;52.80
28374;DHT22;15616;40.148;-102.718;2022-08-03T07:38:43;25.60;52.80
28374;DHT22;15616;40.148;-102.718;2022-08-03T07:41:09;25.60;52.70
28374;DHT22;15616;40.148;-102.718;2022-08-03T07:43:35;25.60;52.70
28374;DHT22;15616;40.148;-102.718;2022-08-03T07:46:13;25.60;52.70
28374;DHT22;15616;40.148;-102.718;2022-08-03T07:48:40;25.70;52.70
28374;DHT22;15616;40.148;-102.718;2022-08-03T07:51:06;25.70;52.80
28374;DHT22;15616;40.148;-102.718;2022-08-03T07:53:32;25.60;52.70
28374;DHT22;15616;40.148;-102.718;2022-08-03T07:55:58;25.70;52.70
28374;DHT22;15616;40.148;-102.718;2022-08-03T07:58:24;25.60;52.60
28374;DHT22;15616;40.148;-102.718;2022-08-03T08:00:50;25.70;52.70
28374;DHT22;15616;40.148;-102.718;2022-08-03T08:03:17;25.70;52.60
28374;DHT22;15616;40.148;-102.718;2022-08-03T08:05:44;25.70;52.70
28374;DHT22;15616;40.148;-102.718;2022-08-03T08:08:10;25.70;52.70
28374;DHT22;15616;40.148;-102.718;2022-08-03T08:10:36;25.70;52.70
28374;DHT22;15616;40.148;-102.718;2022-08-03T08:13:03;25.60;52.70
28374;DHT22;15616;40.148;-102.718;2022-08-03T08:15:29;25.60;52.70
28374;DHT22;15616;40.148;-102.718;2022-08-03T08:17:56;25.70;52.70
28374;DHT22;15616;40.148;-102.718;2022-08-03T08:20:24;25.70;52.70
28374;DHT22;15616;40.148;-102.718;2022-08-03T08:22:52;25.80;52.70
28374;DHT22;15616;40.148;-102.718;2022-08-03T08:25:19;25.80;53.30
28374;DHT22;15616;40.148;-102.718;2022-08-03T08:27:47;25.80;52.60
28374;DHT22;15616;40.148;-102.718;2022-08-03T08:30:16;25.80;52.50
28374;DHT22;15616;40.148;-102.718;2022-08-03T08:32:44;25.90;52.50
28374;DHT22;15616;40.148;-102.718;2022-08-03T08:35:11;25.90;52.40
28374;DHT22;15616;40.148;-102.718;2022-08-03T08:37:37;25.90;52.40
28374;DHT22;15616;40.148;-102.718;2022-08-03T08:40:04;25.90;52.40
28374;DHT22;15616;40.148;-102.718;2022-08-03T08:42:31;25.90;52.30
28374;DHT22;15616;40.148;-102.718;2022-08-03T08:44:59;25.90;52.30
28374;DHT22;15616;40.148;-102.718;2022-08-03T08:47:26;25.90;52.30
28374;DHT22;15616;40.148;-102.718;2022-08-03T08:49:54;26.00;52.30
28374;DHT22;15616;40.148;-102.718;2022-08-03T08:52:26;25.90;52.20
28374;DHT22;15616;40.148;-102.718;2022-08-03T08:54:58;26.00;52.30
28374;DHT22;15616;40.148;-102.718;2022-08-03T08:57:30;26.00;52.30
28374;DHT22;15616;40.148;-102.718;2022-08-03T08:59:58;26.00;52.90
28374;DHT22;15616;40.148;-102.718;2022-08-03T09:02:29;26.00;52.30
28374;DHT22;15616;40.148;-102.718;2022-08-03T09:04:56;26.00;52.20
28374;DHT22;15616;40.148;-102.718;2022-08-03T09:07:22;26.00;52.20
28374;DHT22;15616;40.148;-102.718;2022-08-03T09:09:48;26.00;52.20
28374;DHT22;15616;40.148;-102.718;2022-08-03T09:12:14;26.00;52.20
28374;DHT22;15616;40.148;-102.718;2022-08-03T09:14:40;26.00;52.20
28374;DHT22;15616;40.148;-102.718;2022-08-03T09:17:06;26.00;52.20
28374;DHT22;15616;40.148;-102.718;2022-08-03T09:19:34;25.90;52.10
28374;DHT22;15616;40.148;-102.718;2022-08-03T09:22:14;25.90;52.10
28374;DHT22;15616;40.148;-102.718;2022-08-03T09:24:58;26.00;52.20
28374;DHT22;15616;40.148;-102.718;2022-08-03T09:27:24;26.00;52.20
28374;DHT22;15616;40.148;-102.718;2022-08-03T09:29:51;26.00;52.30
28374;DHT22;15616;40.148;-102.718;2022-08-03T09:32:22;26.00;52.20
28374;DHT22;15616;40.148;-102.718;2022-08-03T09:34:50;26.00;52.20
28374;DHT22;15616;40.148;-102.718;2022-08-03T09:37:18;26.00;52.80
28374;DHT22;15616;40.148;-102.718;2022-08-03T09:39:44;26.00;52.20
28374;DHT22;15616;40.148;-102.718;2022-08-03T09:42:16;26.00;52.20
28374;DHT22;15616;40.148;-102.718;2022-08-03T09:44:45;26.00;52.20
28374;DHT22;15616;40.148;-102.718;2022-08-03T09:47:14;26.00;52.10
28374;DHT22;15616;40.148;-102.718;2022-08-03T09:49:41;26.00;52.10
28374;DHT22;15616;40.148;-102.718;2022-08-03T09:52:18;26.10;52.10
28374;DHT22;15616;40.148;-102.718;2022-08-03T09:54:52;26.10;52.00
28374;DHT22;15616;40.148;-102.718;2022-08-03T09:57:25;26.10;52.00
28374;DHT22;15616;40.148;-102.718;2022-08-03T09:59:53;26.10;52.00
28374;DHT22;15616;40.148;-102.718;2022-08-03T10:02:26;26.10;52.00
28374;DHT22;15616;40.148;-102.718;2022-08-03T10:04:53;26.10;52.00
28374;DHT22;15616;40.148;-102.718;2022-08-03T10:07:22;26.10;51.90
28374;DHT22;15616;40.148;-102.718;2022-08-03T10:09:59;26.20;51.90
28374;DHT22;15616;40.148;-102.718;2022-08-03T10:12:26;26.20;51.80
28374;DHT22;15616;40.148;-102.718;2022-08-03T10:14:53;26.20;51.80
28374;DHT22;15616;40.148;-102.718;2022-08-03T10:17:21;26.20;51.80
28374;DHT22;15616;40.148;-102.718;2022-08-03T10:19:48;26.20;51.70
28374;DHT22;15616;40.148;-102.718;2022-08-03T10:22:20;26.20;51.70
28374;DHT22;15616;40.148;-102.718;2022-08-03T10:25:08;26.20;51.70
28374;DHT22;15616;40.148;-102.718;2022-08-03T10:27:39;26.30;51.70
28374;DHT22;15616;40.148;-102.718;2022-08-03T10:30:07;26.30;51.70
28374;DHT22;15616;40.148;-102.718;2022-08-03T10:32:40;26.30;51.70
28374;DHT22;15616;40.148;-102.718;2022-08-03T10:35:14;26.30;51.60
28374;DHT22;15616;40.148;-102.718;2022-08-03T10:37:46;26.30;51.40
28374;DHT22;15616;40.148;-102.718;2022-08-03T10:40:19;26.40;51.40
28374;DHT22;15616;40.148;-102.718;2022-08-03T10:42:50;26.40;51.30
28374;DHT22;15616;40.148;-102.718;2022-08-03T10:45:26;26.40;51.20
28374;DHT22;15616;40.148;-102.718;2022-08-03T10:47:54;26.50;51.20
28374;DHT22;15616;40.148;-102.718;2022-08-03T10:50:23;26.50;51.20
28374;DHT22;15616;40.148;-102.718;2022-08-03T10:53:02;26.50;51.10
28374;DHT22;15616;40.148;-102.718;2022-08-03T10:55:39;26.50;51.00
28374;DHT22;15616;40.148;-102.718;2022-08-03T11:01:07;26.50;50.90
28374;DHT22;15616;40.148;-102.718;2022-08-03T11:03:52;26.50;50.80
28374;DHT22;15616;40.148;-102.718;2022-08-03T11:06:26;26.50;50.70
28374;DHT22;15616;40.148;-102.718;2022-08-03T11:09:21;26.60;50.70
28374;DHT22;15616;40.148;-102.718;2022-08-03T11:11:47;26.60;50.60
28374;DHT22;15616;40.148;-102.718;2022-08-03T11:14:20;26.60;50.70
28374;DHT22;15616;40.148;-102.718;2022-08-03T11:16:49;26.60;50.60
28374;DHT22;15616;40.148;-102.718;2022-08-03T11:19:19;26.60;50.60
28374;DHT22;15616;40.148;-102.718;2022-08-03T11:35:13;26.70;50.50
28374;DHT22;15616;40.148;-102.718;2022-08-03T11:40:45;26.70;50.50
28374;DHT22;15616;40.148;-102.718;2022-08-03T11:45:57;26.70;50.50
28374;DHT22;15616;40.148;-102.718;2022-08-03T11:48:35;26.70;50.50
28374;DHT22;15616;40.148;-102.718;2022-08-03T11:53:58;26.80;50.40
28374;DHT22;15616;40.148;-102.718;2022-08-03T11:56:26;26.80;50.50
28374;DHT22;15616;40.148;-102.718;2022-08-03T11:58:54;26.70;50.50
28374;DHT22;15616;40.148;-102.718;2022-08-03T12:01:21;26.70;50.50
28374;DHT22;15616;40.148;-102.718;2022-08-03T12:03:49;26.80;50.40
28374;DHT22;15616;40.148;-102.718;2022-08-03T12:06:17;26.80;50.30
28374;DHT22;15616;40.148;-102.718;2022-08-03T12:08:44;26.90;50.30
28374;DHT22;15616;40.148;-102.718;2022-08-03T12:11:14;26.90;50.30
28374;DHT22;15616;40.148;-102.718;2022-08-03T12:13:45;26.90;50.20
28374;DHT22;15616;40.148;-102.718;2022-08-03T12:16:20;26.90;50.20
28374;DHT22;15616;40.148;-102.718;2022-08-03T12:18:59;26.90;50.20
28374;DHT22;15616;40.148;-102.718;2022-08-03T12:21:26;26.90;50.20
28374;DHT22;15616;40.148;-102.718;2022-08-03T12:23:57;26.90;50.20
28374;DHT22;15616;40.148;-102.718;2022-08-03T12:26:25;26.90;50.10
28374;DHT22;15616;40.148;-102.718;2022-08-03T12:28:51;27.00;50.20
28374;DHT22;15616;40.148;-102.718;2022-08-03T12:31:17;27.00;50.10
28374;DHT22;15616;40.148;-102.718;2022-08-03T12:34:03;27.00;50.10
28374;DHT22;15616;40.148;-102.718;2022-08-03T12:36:32;27.10;50.00
28374;DHT22;15616;40.148;-102.718;2022-08-03T12:39:04;27.00;50.10
28374;DHT22;15616;40.148;-102.718;2022-08-03T12:43:58;27.00;50.10
28374;DHT22;15616;40.148;-102.718;2022-08-03T12:46:30;27.10;50.10
28374;DHT22;15616;40.148;-102.718;2022-08-03T12:54:15;27.10;50.10
28374;DHT22;15616;40.148;-102.718;2022-08-03T12:57:04;27.10;50.00
28374;DHT22;15616;40.148;-102.718;2022-08-03T12:59:36;27.10;50.00
28374;DHT22;15616;40.148;-102.718;2022-08-03T13:02:03;27.10;50.10
28374;DHT22;15616;40.148;-102.718;2022-08-03T13:04:31;27.10;50.00
28374;DHT22;15616;40.148;-102.718;2022-08-03T13:07:08;27.10;50.00
28374;DHT22;15616;40.148;-102.718;2022-08-03T13:10:00;27.20;50.00
28374;DHT22;15616;40.148;-102.718;2022-08-03T13:12:27;27.20;50.00
28374;DHT22;15616;40.148;-102.718;2022-08-03T13:14:57;27.20;50.00
28374;DHT22;15616;40.148;-102.718;2022-08-03T13:17:23;27.20;50.00
28374;DHT22;15616;40.148;-102.718;2022-08-03T13:19:50;27.20;50.00
28374;DHT22;15616;40.148;-102.718;2022-08-03T13:22:20;27.30;50.00
28374;DHT22;15616;40.148;-102.718;2022-08-03T13:24:49;27.30;49.80
28374;DHT22;15616;40.148;-102.718;2022-08-03T13:27:15;27.30;49.80
28374;DHT22;15616;40.148;-102.718;2022-08-03T13:29:41;27.30;49.80
28374;DHT22;15616;40.148;-102.718;2022-08-03T13:32:09;27.30;49.80
28374;DHT22;15616;40.148;-102.718;2022-08-03T13:34:35;27.30;49.80
28374;DHT22;15616;40.148;-102.718;2022-08-03T13:37:02;27.30;49.80
28374;DHT22;15616;40.148;-102.718;2022-08-03T13:39:28;27.30;49.80
28374;DHT22;15616;40.148;-102.718;2022-08-03T13:41:54;27.30;49.70
28374;DHT22;15616;40.148;-102.718;2022-08-03T13:44:20;27.30;50.40
28374;DHT22;15616;40.148;-102.718;2022-08-03T13:46:47;27.30;49.80
28374;DHT22;15616;40.148;-102.718;2022-08-03T13:49:13;27.30;49.80
28374;DHT22;15616;40.148;-102.718;2022-08-03T13:51:39;27.30;49.80
28374;DHT22;15616;40.148;-102.718;2022-08-03T13:54:05;27.30;49.80
28374;DHT22;15616;40.148;-102.718;2022-08-03T13:56:32;27.30;49.80
28374;DHT22;15616;40.148;-102.718;2022-08-03T13:58:58;27.30;49.80
28374;DHT22;15616;40.148;-102.718;2022-08-03T14:01:24;27.30;49.80
28374;DHT22;15616;40.148;-102.718;2022-08-03T14:03:51;27.30;49.80
28374;DHT22;15616;40.148;-102.718;2022-08-03T14:06:20;27.30;49.80
28374;DHT22;15616;40.148;-102.718;2022-08-03T14:08:46;27.30;49.80
28374;DHT22;15616;40.148;-102.718;2022-08-03T14:11:13;27.30;49.80
28374;DHT22;15616;40.148;-102.718;2022-08-03T14:13:39;27.30;49.90
28374;DHT22;15616;40.148;-102.718;2022-08-03T14:16:05;27.30;49.80
28374;DHT22;15616;40.148;-102.718;2022-08-03T14:18:32;27.30;49.80
28374;DHT22;15616;40.148;-102.718;2022-08-03T14:20:58;27.40;49.80
28374;DHT22;15616;40.148;-102.718;2022-08-03T14:23:24;27.40;49.70
28374;DHT22;15616;40.148;-102.718;2022-08-03T14:25:50;27.40;49.70
28374;DHT22;15616;40.148;-102.718;2022-08-03T14:28:20;27.40;49.70
28374;DHT22;15616;40.148;-102.718;2022-08-03T14:30:50;27.40;49.70
28374;DHT22;15616;40.148;-102.718;2022-08-03T14:33:17;27.50;49.80
28374;DHT22;15616;40.148;-102.718;2022-08-03T14:35:42;27.50;49.70
28374;DHT22;15616;40.148;-102.718;2022-08-03T14:38:10;27.50;49.70
28374;DHT22;15616;40.148;-102.718;2022-08-03T14:40:36;27.50;49.60
28374;DHT22;15616;40.148;-102.718;2022-08-03T14:43:02;27.50;49.50
28374;DHT22;15616;40.148;-102.718;2022-08-03T14:45:28;27.60;49.50
28374;DHT22;15616;40.148;-102.718;2022-08-03T14:47:54;27.60;49.40
28374;DHT22;15616;40.148;-102.718;2022-08-03T14:50:20;27.60;49.30
28374;DHT22;15616;40.148;-102.718;2022-08-03T14:52:46;27.70;49.20
28374;DHT22;15616;40.148;-102.718;2022-08-03T14:55:12;27.70;49.20
28374;DHT22;15616;40.148;-102.718;2022-08-03T14:57:38;27.70;49.20
28374;DHT22;15616;40.148;-102.718;2022-08-03T15:00:05;27.70;49.20
28374;DHT22;15616;40.148;-102.718;2022-08-03T15:02:31;27.70;49.20
28374;DHT22;15616;40.148;-102.718;2022-08-03T15:04:57;27.70;49.90
28374;DHT22;15616;40.148;-102.718;2022-08-03T15:07:23;27.70;49.20
28374;DHT22;15616;40.148;-102.718;2022-08-03T15:09:49;27.70;49.20
28374;DHT22;15616;40.148;-102.718;2022-08-03T15:12:15;27.70;49.20
28374;DHT22;15616;40.148;-102.718;2022-08-03T15:14:41;27.80;49.20
28374;DHT22;15616;40.148;-102.718;2022-08-03T15:17:07;27.90;48.90
28374;DHT22;15616;40.148;-102.718;2022-08-03T15:19:34;28.00;48.70
28374;DHT22;15616;40.148;-102.718;2022-08-03T15:22:00;28.00;48.70
28374;DHT22;15616;40.148;-102.718;2022-08-03T15:24:26;28.00;48.70
28374;DHT22;15616;40.148;-102.718;2022-08-03T15:26:52;27.90;48.70
28374;DHT22;15616;40.148;-102.718;2022-08-03T15:29:18;27.90;48.80
28374;DHT22;15616;40.148;-102.718;2022-08-03T15:31:45;27.80;48.90
28374;DHT22;15616;40.148;-102.718;2022-08-03T15:34:11;27.80;49.00
28374;DHT22;15616;40.148;-102.718;2022-08-03T15:36:37;27.70;49.00